AIC25 LFPO-EGLL
Flight info
| Callsign | AIC25 |
|---|---|
| Flight time | N/A |
| Altitude | 24000 |
| Route | OPALE DCT KESAX DCT DIMAL DCT ALESO |
| Aircraft | A320/M-SDE3FGHIRWY/LB1 |
Departure
| Time | 2026-04-30 13:05 |
|---|---|
| Airport | Paris-Orly Airport (LFPO) |
Arrival
| Time | N/A |
|---|---|
| Airport | London Heathrow Airport (EGLL) |
| Time | Latitude | Longitude | Altitude | Speed | Heading |
|---|---|---|---|---|---|
| 2026-04-30 12:51 | 48.72592 | 2.36234 | 298 ft | 0 kts | 280° |
| 2026-04-30 12:58 | 48.72591 | 2.36236 | 291 ft | 2 kts | 280° |
| 2026-04-30 12:58 | 48.72588 | 2.36262 | 296 ft | 3 kts | 296° |
| 2026-04-30 12:58 | 48.72578 | 2.36283 | 297 ft | 2 kts | 317° |
| 2026-04-30 12:58 | 48.72565 | 2.36300 | 297 ft | 2 kts | 317° |
| 2026-04-30 12:59 | 48.72553 | 2.36317 | 297 ft | 2 kts | 317° |
| 2026-04-30 12:59 | 48.72541 | 2.36336 | 294 ft | 3 kts | 290° |
| 2026-04-30 12:59 | 48.72538 | 2.36362 | 292 ft | 3 kts | 255° |
| 2026-04-30 12:59 | 48.72539 | 2.36371 | 293 ft | 0 kts | 247° |
| 2026-04-30 13:01 | 48.72537 | 2.36364 | 292 ft | 3 kts | 247° |
| 2026-04-30 13:01 | 48.72517 | 2.36273 | 293 ft | 15 kts | 255° |
| 2026-04-30 13:01 | 48.72460 | 2.36239 | 293 ft | 8 kts | 176° |
| 2026-04-30 13:01 | 48.72417 | 2.36198 | 290 ft | 7 kts | 236° |
| 2026-04-30 13:02 | 48.72399 | 2.36107 | 291 ft | 14 kts | 254° |
| 2026-04-30 13:02 | 48.72368 | 2.35943 | 291 ft | 16 kts | 255° |
| 2026-04-30 13:02 | 48.72340 | 2.35782 | 292 ft | 15 kts | 255° |
| 2026-04-30 13:02 | 48.72302 | 2.35639 | 288 ft | 14 kts | 228° |
| 2026-04-30 13:03 | 48.72214 | 2.35608 | 287 ft | 13 kts | 169° |
| 2026-04-30 13:03 | 48.72117 | 2.35647 | 286 ft | 16 kts | 161° |
| 2026-04-30 13:03 | 48.72037 | 2.35738 | 286 ft | 9 kts | 123° |
| 2026-04-30 13:03 | 48.72008 | 2.35808 | 286 ft | 9 kts | 120° |
| 2026-04-30 13:04 | 48.71976 | 2.35896 | 289 ft | 10 kts | 114° |
| 2026-04-30 13:04 | 48.71967 | 2.36003 | 287 ft | 11 kts | 84° |
| 2026-04-30 13:04 | 48.71989 | 2.36122 | 290 ft | 15 kts | 73° |
| 2026-04-30 13:04 | 48.72069 | 2.36569 | 292 ft | 78 kts | 74° |
| 2026-04-30 13:05 | 48.72273 | 2.37660 | 296 ft | 134 kts | 75° |
| 2026-04-30 13:05 | 48.72551 | 2.39210 | 493 ft | 161 kts | 77° |
| 2026-04-30 13:05 | 48.72850 | 2.40857 | 1204 ft | 162 kts | 76° |
| 2026-04-30 13:06 | 48.73388 | 2.43773 | 2218 ft | 191 kts | 76° |
| 2026-04-30 13:06 | 48.73760 | 2.45800 | 2756 ft | 210 kts | 77° |
| 2026-04-30 13:06 | 48.74035 | 2.48085 | 3280 ft | 233 kts | 89° |
| 2026-04-30 13:06 | 48.74102 | 2.50627 | 3988 ft | 247 kts | 90° |
| 2026-04-30 13:07 | 48.74194 | 2.53260 | 4841 ft | 253 kts | 90° |
| 2026-04-30 13:07 | 48.74244 | 2.55953 | 5659 ft | 257 kts | 99° |
| 2026-04-30 13:07 | 48.73551 | 2.58423 | 6433 ft | 259 kts | 133° |
| 2026-04-30 13:07 | 48.72009 | 2.59816 | 7247 ft | 265 kts | 167° |
| 2026-04-30 13:08 | 48.70165 | 2.59619 | 8043 ft | 275 kts | 200° |
| 2026-04-30 13:08 | 48.68642 | 2.57835 | 8833 ft | 286 kts | 233° |
| 2026-04-30 13:08 | 48.67904 | 2.54996 | 9661 ft | 296 kts | 257° |
| 2026-04-30 13:08 | 48.67645 | 2.51916 | 10453 ft | 302 kts | 261° |
| 2026-04-30 13:09 | 48.67407 | 2.48644 | 10765 ft | 324 kts | 261° |